首页
METAR-TAF:

METAR-TAF

机场 :

易卜拉欣·納西爾國際機場

馬累, 马尔代夫

纬度: 04-12N, 经度: 073-32E, 海拔: 2米

当前天气观测

该预报发布于57分钟前的17:00 UTC
风速15节,风向西
温度 30°C
湿度 79%
气压 1009 hPa
能见度10公里或以上
少量云层高于1700英尺
阴天层高于11000英尺

METAR: VRMM 291700Z 28015KT 9999 FEW017 OVC110 30/26 Q1009 TEMPO 29027G40KT 3000 TSRA

时间: 22:57 (17:57 UTC)

预报

该预报发布于57分钟前的17:00 UTC
预报有效从29日的 18点(UTC)到 30日的 24点(UTC)
风速22节,风向西转西北
能见度10公里或以上
散云层高于1700英尺, 塔状积云.
散云层高于10000英尺
短暂存在
从 29日的 18点(UTC)到 29日的 24点(UTC)
风速30节,风向西转西北,有时为45节阵风
能見度: 1500
散云层高于1600英尺, 积雨云.
雷暴, 大雨, 飑,

TAF: VRMM 291700Z 2918/3024 29022KT 9999 SCT017TCU SCT100 TEMPO 2918/2924 29030G45KT 1500 +TSRA SQ SCT016CB

超过4000个机场的气象观测和天气预报(METAR&TAF报告)。

可查询的气象台以黄色和红色小点在地图上表示。

将鼠标移到小点上方,可查看气象台名称。

然后点击查看天气观测和预报。

如需切换地图:点击带黑十字的绿色按钮放大地图;点击带横线的绿色按钮缩小地图;或者点击绿色箭头查看邻近地区的地图。


METAR-TAF: